Aviation Digital Data Service (ADDS)

Output produced by METARs form (0347 UTC 20 April 2014)
found at http://aviationweather.gov/adds/metars/
 
KLBT 200220Z 2002/2024 03016G24KT 3SM -RA BR BKN008 OVC012 
     FM200400 04014G25KT 5SM -RA OVC008 
     FM200800 03015G25KT P6SM VCSH SCT007 BKN010 OVC025 
     FM201500 03017G22KT P6SM BKN025 OVC050